Bushes, Louisiana
Current Conditions -  °F | °C
As of 1:53 PM on Monday 22 Dec 2014 (Local Time) from KMLU Reporting Station
Overcast Overcast  
Wind Chill: 61°   Ceiling: 2100
Heat Index: 61°   Visibility: 9mi
Dew Point: 58°   Wind: 6mph
Humidity: 90%   Direction: 140°SE
Pressure: 29.64"   Gusts: NA
Location:  32.1434°N, 91.7026°W
Report Text: KMLU 221953Z 14005KT 9SM SCT015 OVC021 16/14 A2964 RMK AO2 SLP035 T01610144
Loading
Personal Weather Stations






























Interactive Weather Map New forecast layout! Learn more

10-Day Weather Forecast

Advertisements
Track Severe Weather on mobile